createdAt,value
2023-03-31T00:01:53.246Z,71.50
2023-03-31T00:04:19.873Z,71.40
2023-03-31T00:06:46.438Z,71.40
2023-03-31T00:09:12.911Z,71.10
2023-03-31T00:11:39.384Z,71.40
2023-03-31T00:14:05.860Z,72.20
2023-03-31T00:16:32.334Z,71.30
2023-03-31T00:18:58.883Z,71.40
2023-03-31T00:21:25.728Z,71.40
2023-03-31T00:23:52.450Z,71.20
2023-03-31T00:26:18.921Z,71.00
2023-03-31T00:28:45.382Z,71.20
2023-03-31T00:31:11.849Z,71.40
2023-03-31T00:33:38.322Z,72.00
2023-03-31T00:36:05.021Z,71.10
2023-03-31T00:38:31.607Z,71.30
2023-03-31T00:40:58.076Z,70.90
2023-03-31T00:43:24.550Z,71.00
2023-03-31T00:45:51.072Z,70.90
2023-03-31T00:48:17.614Z,70.60
2023-03-31T00:50:44.072Z,71.00
2023-03-31T00:53:10.536Z,70.80
2023-03-31T00:55:37.025Z,71.00
2023-03-31T00:58:03.493Z,71.20
2023-03-31T01:00:30.002Z,70.70
2023-03-31T01:02:56.502Z,70.70
2023-03-31T01:05:22.995Z,70.90
2023-03-31T01:07:49.457Z,70.90
2023-03-31T01:10:15.937Z,70.80
2023-03-31T01:12:42.418Z,70.80
2023-03-31T01:15:08.909Z,70.80
2023-03-31T01:17:35.564Z,70.80
2023-03-31T01:20:02.309Z,70.90
2023-03-31T01:22:28.766Z,70.90
2023-03-31T01:24:55.277Z,70.80
2023-03-31T01:27:21.750Z,71.00
2023-03-31T01:29:48.241Z,70.80
2023-03-31T01:32:14.719Z,70.70
2023-03-31T01:34:41.190Z,70.70
2023-03-31T01:37:07.683Z,71.10
2023-03-31T01:39:34.149Z,70.80
2023-03-31T01:42:00.618Z,70.60
2023-03-31T01:44:27.101Z,70.60
2023-03-31T01:46:53.743Z,70.60
2023-03-31T01:49:20.313Z,70.80
2023-03-31T01:51:46.767Z,72.00
2023-03-31T01:54:13.239Z,71.10
2023-03-31T01:56:39.688Z,71.20
2023-03-31T01:59:06.168Z,71.00
2023-03-31T02:01:33.121Z,71.00
2023-03-31T02:04:00.451Z,71.40
2023-03-31T02:06:26.962Z,71.10
2023-03-31T02:08:53.421Z,71.00
2023-03-31T02:11:19.917Z,71.00
2023-03-31T02:13:46.368Z,71.10
2023-03-31T02:16:12.889Z,71.30
2023-03-31T02:18:39.391Z,71.70
2023-03-31T02:21:05.870Z,71.60
2023-03-31T02:23:32.340Z,71.50
2023-03-31T02:25:58.813Z,71.40
2023-03-31T02:28:25.289Z,71.70
2023-03-31T02:30:51.760Z,72.30
2023-03-31T02:33:18.225Z,71.20
2023-03-31T02:35:44.736Z,71.50
2023-03-31T02:38:11.228Z,71.10
2023-03-31T02:40:37.703Z,71.10
2023-03-31T02:43:04.186Z,70.90
2023-03-31T02:45:30.711Z,70.70
2023-03-31T02:47:57.262Z,70.80
2023-03-31T02:50:23.769Z,70.60
2023-03-31T02:52:50.236Z,70.40
2023-03-31T02:55:16.731Z,70.30
2023-03-31T02:57:43.238Z,70.50
2023-03-31T03:00:09.726Z,70.30
2023-03-31T03:02:36.275Z,70.60
2023-03-31T03:05:02.792Z,70.70
2023-03-31T03:07:29.273Z,70.70
2023-03-31T03:09:55.727Z,70.90
2023-03-31T03:12:22.181Z,70.80
2023-03-31T03:14:48.796Z,71.00
2023-03-31T03:17:15.292Z,70.90
2023-03-31T03:19:41.789Z,70.80
2023-03-31T03:22:09.296Z,71.00
2023-03-31T03:24:35.873Z,71.20
2023-03-31T03:27:02.341Z,71.80
2023-03-31T03:29:28.818Z,71.40
2023-03-31T03:31:55.316Z,71.40
2023-03-31T03:34:21.768Z,71.10
2023-03-31T03:36:48.245Z,71.10
2023-03-31T03:39:14.696Z,71.40
2023-03-31T03:41:41.189Z,71.00
2023-03-31T03:44:07.679Z,70.90
2023-03-31T03:46:34.241Z,70.90
2023-03-31T03:49:00.717Z,70.90
2023-03-31T03:51:27.192Z,70.50
2023-03-31T03:53:53.686Z,70.70
2023-03-31T03:56:20.158Z,70.90
2023-03-31T03:58:46.611Z,70.70
2023-03-31T04:01:13.078Z,70.70
2023-03-31T04:03:39.568Z,70.70
2023-03-31T04:06:06.263Z,70.70
2023-03-31T04:08:32.871Z,70.70
2023-03-31T04:10:59.360Z,70.30
2023-03-31T04:13:25.869Z,70.80
2023-03-31T04:15:52.402Z,70.70
2023-03-31T04:18:18.886Z,70.40
2023-03-31T04:20:45.361Z,70.40
2023-03-31T04:23:11.835Z,70.40
2023-03-31T04:25:38.329Z,70.70
2023-03-31T04:28:04.822Z,70.60
2023-03-31T04:30:31.371Z,70.50
2023-03-31T04:32:57.845Z,70.40
2023-03-31T04:35:24.534Z,70.40
2023-03-31T04:37:51.085Z,70.30
2023-03-31T04:40:17.569Z,70.10
2023-03-31T04:42:44.076Z,70.30
2023-03-31T04:45:10.568Z,70.50
2023-03-31T04:47:37.135Z,70.40
2023-03-31T04:50:03.634Z,70.50
2023-03-31T04:52:30.099Z,70.50
2023-03-31T04:54:56.566Z,70.50
2023-03-31T04:57:23.074Z,70.30
2023-03-31T04:59:49.614Z,70.10
2023-03-31T05:02:16.177Z,70.30
2023-03-31T05:04:42.682Z,70.50
2023-03-31T05:07:09.174Z,70.50
2023-03-31T05:09:35.647Z,70.30
2023-03-31T05:12:02.112Z,70.20
2023-03-31T05:14:28.592Z,70.30
2023-03-31T05:16:55.240Z,70.10
2023-03-31T05:19:21.760Z,70.20
2023-03-31T05:21:48.227Z,70.10
2023-03-31T05:24:14.696Z,70.30
2023-03-31T05:26:41.225Z,70.20
2023-03-31T05:29:07.725Z,70.30
2023-03-31T05:31:34.245Z,70.50
2023-03-31T05:34:00.743Z,70.50
2023-03-31T05:36:27.394Z,70.50
2023-03-31T05:38:53.993Z,70.50
2023-03-31T05:41:20.494Z,70.20
2023-03-31T05:43:47.801Z,70.20
2023-03-31T05:46:14.296Z,70.30
2023-03-31T05:48:40.760Z,70.30
2023-03-31T05:51:07.221Z,70.30
2023-03-31T05:53:33.697Z,70.30
2023-03-31T05:56:00.133Z,70.20
2023-03-31T05:58:26.631Z,70.20
2023-03-31T06:00:53.142Z,70.20
2023-03-31T06:03:19.678Z,70.30
2023-03-31T06:05:46.155Z,70.30
2023-03-31T06:08:12.610Z,70.90
2023-03-31T06:10:39.058Z,70.20
2023-03-31T06:13:05.529Z,70.30
2023-03-31T06:15:32.027Z,70.40
2023-03-31T06:17:58.620Z,70.40
2023-03-31T06:20:28.310Z,70.30
2023-03-31T06:22:55.158Z,70.30
2023-03-31T06:25:21.764Z,70.30
2023-03-31T06:27:48.334Z,70.30
2023-03-31T06:30:14.825Z,70.50
2023-03-31T06:32:41.357Z,70.50
2023-03-31T06:35:07.866Z,70.50
2023-03-31T06:37:34.387Z,70.60
2023-03-31T06:40:00.945Z,70.60
2023-03-31T06:42:27.464Z,70.70
2023-03-31T06:44:53.933Z,70.50
2023-03-31T06:47:20.470Z,70.50
2023-03-31T06:49:46.971Z,70.70
2023-03-31T06:52:13.420Z,70.50
2023-03-31T06:54:39.907Z,70.70
2023-03-31T06:57:06.414Z,70.80
2023-03-31T06:59:32.908Z,70.50
2023-03-31T07:01:59.428Z,70.40
2023-03-31T07:04:25.929Z,70.60
2023-03-31T07:06:52.376Z,70.50
2023-03-31T07:09:18.878Z,70.50
2023-03-31T07:11:45.326Z,70.40
2023-03-31T07:14:11.806Z,70.30
2023-03-31T07:16:38.417Z,70.80
2023-03-31T07:19:05.096Z,70.70
2023-03-31T07:21:31.565Z,70.70
2023-03-31T07:23:58.028Z,70.60
2023-03-31T07:26:24.495Z,70.60
2023-03-31T07:28:50.985Z,71.00
2023-03-31T07:31:17.493Z,71.00
2023-03-31T07:33:43.981Z,70.80
2023-03-31T07:36:13.232Z,70.80
2023-03-31T07:38:40.527Z,70.90
2023-03-31T07:41:09.563Z,70.90
2023-03-31T07:43:36.335Z,70.90
2023-03-31T07:46:02.861Z,71.10
2023-03-31T07:48:29.442Z,71.30
2023-03-31T07:50:56.009Z,71.10
2023-03-31T07:53:22.502Z,70.90
2023-03-31T07:55:48.970Z,70.90
2023-03-31T07:58:15.549Z,70.70
2023-03-31T08:00:42.089Z,70.70
2023-03-31T08:03:08.629Z,70.60
2023-03-31T08:05:35.158Z,70.70
2023-03-31T08:08:01.645Z,70.70
2023-03-31T08:10:28.145Z,71.00
2023-03-31T08:12:54.626Z,70.90
2023-03-31T08:15:21.118Z,70.80
2023-03-31T08:17:47.624Z,71.00
2023-03-31T08:20:14.103Z,70.90
2023-03-31T08:22:40.572Z,71.10
2023-03-31T08:25:07.056Z,70.90
2023-03-31T08:27:33.531Z,71.10
2023-03-31T08:30:00.020Z,71.20
2023-03-31T08:32:26.496Z,71.40
2023-03-31T08:34:52.988Z,71.40
2023-03-31T08:37:19.452Z,71.30
2023-03-31T08:39:45.944Z,71.00
2023-03-31T08:42:14.592Z,71.10
2023-03-31T08:44:42.459Z,71.20
2023-03-31T08:47:09.009Z,71.40
2023-03-31T08:49:35.482Z,71.40
2023-03-31T08:52:01.944Z,71.70
2023-03-31T08:54:28.448Z,71.40
2023-03-31T08:56:54.953Z,71.40
2023-03-31T08:59:21.438Z,71.00
2023-03-31T09:01:55.615Z,71.40
2023-03-31T09:04:23.117Z,71.40
2023-03-31T09:06:49.738Z,71.50
2023-03-31T09:09:16.218Z,71.60
2023-03-31T09:11:42.701Z,71.70
2023-03-31T09:14:09.181Z,71.50
2023-03-31T09:16:35.718Z,71.40
2023-03-31T09:19:02.224Z,71.30
2023-03-31T09:21:28.707Z,71.10
2023-03-31T09:23:55.183Z,71.20
2023-03-31T09:26:21.638Z,71.40
2023-03-31T09:28:48.115Z,71.30
2023-03-31T09:31:14.632Z,71.30
2023-03-31T09:33:41.142Z,71.30
2023-03-31T09:36:07.937Z,71.40
2023-03-31T09:38:34.645Z,71.60
2023-03-31T09:41:01.121Z,71.70
2023-03-31T09:43:27.611Z,71.60
2023-03-31T09:46:15.161Z,71.20
2023-03-31T09:48:40.535Z,71.50
2023-03-31T09:51:06.993Z,71.20
2023-03-31T09:53:33.452Z,71.10
2023-03-31T09:55:59.942Z,71.00
2023-03-31T09:58:26.409Z,71.10
2023-03-31T10:00:52.885Z,71.10
2023-03-31T10:03:19.371Z,71.00
2023-03-31T10:05:45.847Z,70.90
2023-03-31T10:08:12.321Z,71.10
2023-03-31T10:10:38.808Z,70.70
2023-03-31T10:13:05.288Z,70.90
2023-03-31T10:15:31.829Z,71.00
2023-03-31T10:17:58.330Z,71.10
2023-03-31T10:20:24.846Z,71.20
2023-03-31T10:22:51.585Z,71.10
2023-03-31T10:25:18.238Z,70.90
2023-03-31T10:27:44.698Z,71.20
2023-03-31T10:30:11.198Z,71.00
2023-03-31T10:32:37.758Z,71.20
2023-03-31T10:35:04.276Z,71.70
2023-03-31T10:37:30.749Z,71.90
2023-03-31T10:39:57.205Z,72.00
2023-03-31T10:42:24.820Z,72.10
2023-03-31T10:44:51.315Z,72.00
2023-03-31T10:47:17.789Z,72.10
2023-03-31T10:49:44.280Z,72.20
2023-03-31T10:52:10.772Z,72.00
2023-03-31T10:54:37.250Z,71.40
2023-03-31T10:57:03.776Z,71.50
2023-03-31T10:59:30.281Z,71.60
2023-03-31T11:01:58.989Z,71.70
2023-03-31T11:04:26.720Z,71.50
2023-03-31T11:06:53.205Z,71.50
2023-03-31T11:09:19.692Z,71.50
2023-03-31T11:11:46.183Z,71.40
2023-03-31T11:14:12.652Z,71.40
2023-03-31T11:16:39.203Z,71.40
2023-03-31T11:19:05.757Z,71.60
2023-03-31T11:21:32.236Z,71.70
2023-03-31T11:23:58.761Z,71.70
2023-03-31T11:26:25.248Z,71.60
2023-03-31T11:28:51.726Z,71.70
2023-03-31T11:31:18.237Z,71.60
2023-03-31T11:33:44.736Z,71.90
2023-03-31T11:36:11.285Z,72.20
2023-03-31T11:38:37.766Z,72.10
2023-03-31T11:41:04.459Z,72.40
2023-03-31T11:43:31.186Z,72.30
2023-03-31T11:45:57.720Z,72.30
2023-03-31T11:48:24.215Z,72.20
2023-03-31T11:50:50.714Z,72.00
2023-03-31T11:53:17.214Z,71.90
2023-03-31T11:55:43.707Z,72.00
2023-03-31T11:58:11.877Z,71.90
2023-03-31T12:00:38.361Z,71.60
2023-03-31T12:03:05.101Z,71.70
2023-03-31T12:05:31.761Z,71.90
2023-03-31T12:07:58.274Z,71.80
2023-03-31T12:10:24.794Z,71.70
2023-03-31T12:12:53.874Z,71.90
2023-03-31T12:15:20.351Z,71.80
2023-03-31T12:17:46.854Z,72.00
2023-03-31T12:20:13.461Z,71.90
2023-03-31T12:22:39.979Z,71.90
2023-03-31T12:25:06.440Z,72.00
2023-03-31T12:27:32.917Z,72.10
2023-03-31T12:29:59.392Z,72.10
2023-03-31T12:32:25.936Z,72.20
2023-03-31T12:34:52.404Z,72.10
2023-03-31T12:37:18.885Z,72.10
2023-03-31T12:39:45.372Z,72.30
2023-03-31T12:42:11.853Z,72.30
2023-03-31T12:44:38.320Z,72.10
2023-03-31T12:47:04.904Z,72.00
2023-03-31T12:49:31.418Z,71.80
2023-03-31T12:51:57.898Z,71.70
2023-03-31T12:54:24.363Z,71.60
2023-03-31T12:56:50.900Z,71.80
2023-03-31T12:59:17.431Z,71.70
2023-03-31T13:01:43.920Z,71.90
2023-03-31T13:04:10.510Z,72.00
2023-03-31T13:06:37.016Z,71.80
2023-03-31T13:09:03.478Z,71.90
2023-03-31T13:11:29.942Z,71.80
2023-03-31T13:16:42.908Z,71.70
2023-03-31T13:19:09.430Z,71.70
2023-03-31T13:21:35.973Z,71.80
2023-03-31T13:24:02.457Z,71.90
2023-03-31T13:26:28.917Z,72.10
2023-03-31T13:28:55.407Z,72.10
2023-03-31T13:31:21.894Z,72.30
2023-03-31T13:33:48.397Z,72.10
2023-03-31T13:36:14.932Z,72.10
2023-03-31T13:38:41.403Z,71.80
2023-03-31T13:41:07.933Z,72.40
2023-03-31T13:43:34.407Z,72.50
2023-03-31T13:46:00.991Z,72.30
2023-03-31T13:48:27.532Z,71.90
2023-03-31T13:50:53.997Z,72.20
2023-03-31T13:53:20.476Z,72.40
2023-03-31T13:55:46.978Z,72.40
2023-03-31T13:58:29.522Z,72.50
2023-03-31T14:00:59.934Z,72.60
2023-03-31T14:03:26.462Z,72.60
2023-03-31T14:05:53.074Z,72.80
2023-03-31T14:08:19.559Z,71.20
2023-03-31T14:10:46.027Z,72.30
2023-03-31T14:13:12.488Z,71.90
2023-03-31T14:15:38.996Z,71.90
2023-03-31T14:18:05.551Z,72.50
2023-03-31T14:20:32.046Z,72.50
2023-03-31T14:22:58.523Z,72.60
2023-03-31T14:25:24.988Z,72.10
2023-03-31T14:27:51.489Z,72.50
2023-03-31T14:30:17.980Z,72.20
2023-03-31T14:32:44.548Z,72.30
2023-03-31T14:35:11.035Z,71.30
2023-03-31T14:37:37.720Z,71.80
2023-03-31T14:40:04.204Z,71.00
2023-03-31T14:42:30.713Z,71.70
2023-03-31T14:44:57.193Z,71.60
2023-03-31T14:47:23.745Z,70.30
2023-03-31T14:49:50.263Z,72.00
2023-03-31T14:52:16.775Z,71.20
2023-03-31T14:54:43.228Z,70.90
2023-03-31T14:57:09.726Z,71.20
2023-03-31T14:59:36.225Z,70.80
2023-03-31T15:02:02.728Z,71.00
2023-03-31T15:04:39.620Z,70.40
2023-03-31T15:07:09.018Z,71.50
2023-03-31T15:09:35.507Z,71.20
2023-03-31T15:12:02.028Z,70.60
2023-03-31T15:14:28.516Z,70.40
2023-03-31T15:16:55.067Z,70.10
2023-03-31T15:19:21.657Z,70.60
2023-03-31T15:21:48.131Z,70.30
2023-03-31T15:24:14.653Z,70.90
2023-03-31T15:29:27.637Z,70.90
2023-03-31T15:31:54.273Z,70.80
2023-03-31T15:34:20.997Z,70.90
2023-03-31T15:36:47.615Z,70.90
2023-03-31T15:39:14.105Z,71.20
2023-03-31T15:41:40.610Z,71.20
2023-03-31T15:44:07.101Z,71.60
2023-03-31T15:46:33.597Z,71.40
2023-03-31T15:49:00.107Z,71.60
2023-03-31T15:51:26.566Z,71.60
2023-03-31T15:53:53.028Z,71.60
2023-03-31T15:56:19.503Z,71.60
2023-03-31T15:58:45.978Z,71.40
2023-03-31T16:01:12.525Z,71.40
2023-03-31T16:03:39.036Z,71.40
2023-03-31T16:06:05.511Z,71.40
2023-03-31T16:08:32.013Z,71.40
2023-03-31T16:10:58.515Z,71.70
2023-03-31T16:13:24.986Z,72.50
2023-03-31T16:15:51.452Z,71.20
2023-03-31T16:18:17.940Z,71.50
2023-03-31T16:20:44.414Z,71.40
2023-03-31T16:23:10.961Z,71.40
2023-03-31T16:25:37.430Z,71.30
2023-03-31T16:28:03.904Z,71.30
2023-03-31T16:30:30.390Z,71.60
2023-03-31T16:32:56.909Z,71.40
2023-03-31T16:35:23.388Z,71.30
2023-03-31T16:37:49.937Z,71.20
2023-03-31T16:40:18.161Z,71.00
2023-03-31T16:42:44.626Z,71.20
2023-03-31T16:45:14.676Z,71.30
2023-03-31T16:47:44.577Z,70.90
2023-03-31T16:50:11.932Z,71.20
2023-03-31T16:52:38.416Z,70.90
2023-03-31T16:55:04.873Z,71.20
2023-03-31T16:57:31.434Z,70.90
2023-03-31T16:59:59.080Z,71.00
2023-03-31T17:02:25.715Z,71.00
2023-03-31T17:04:54.214Z,71.20
2023-03-31T17:07:23.007Z,71.30
2023-03-31T17:09:49.519Z,70.90
2023-03-31T17:12:15.999Z,70.90
2023-03-31T17:14:42.504Z,71.00
2023-03-31T17:17:09.002Z,71.00
2023-03-31T17:19:35.527Z,71.20
2023-03-31T17:22:02.028Z,71.20
2023-03-31T17:24:28.609Z,71.30
2023-03-31T17:26:55.076Z,71.40
2023-03-31T17:29:21.539Z,71.60
2023-03-31T17:31:48.036Z,71.80
2023-03-31T17:34:14.561Z,71.90
2023-03-31T17:36:41.067Z,71.60
2023-03-31T17:39:07.545Z,71.60
2023-03-31T17:41:34.063Z,71.50
2023-03-31T17:44:00.521Z,71.40
2023-03-31T17:46:27.005Z,71.00
2023-03-31T17:48:53.495Z,71.00
2023-03-31T17:51:19.980Z,71.60
2023-03-31T17:53:46.448Z,71.30
2023-03-31T17:56:12.917Z,71.40
2023-03-31T17:58:39.379Z,71.60
2023-03-31T18:01:05.855Z,71.70
2023-03-31T18:03:32.321Z,71.70
2023-03-31T18:05:58.816Z,71.70
2023-03-31T18:08:25.269Z,71.60
2023-03-31T18:10:51.746Z,71.60
2023-03-31T18:13:18.236Z,71.60
2023-03-31T18:15:44.749Z,71.80
2023-03-31T18:18:11.269Z,71.90
2023-03-31T18:20:37.898Z,71.90
2023-03-31T18:23:04.481Z,72.00
2023-03-31T18:25:31.036Z,71.80
2023-03-31T18:28:00.222Z,71.80
2023-03-31T18:30:26.744Z,72.70
2023-03-31T18:32:53.401Z,72.00
2023-03-31T18:35:20.091Z,73.00
2023-03-31T18:37:46.632Z,71.90
2023-03-31T18:40:13.107Z,71.90
2023-03-31T18:42:39.591Z,72.00
2023-03-31T18:45:06.047Z,72.00
2023-03-31T18:47:32.563Z,72.30
2023-03-31T18:49:59.031Z,72.00
2023-03-31T18:52:25.520Z,71.90
2023-03-31T18:54:52.007Z,72.00
2023-03-31T18:57:18.496Z,72.20
2023-03-31T18:59:44.972Z,71.90
2023-03-31T19:02:11.505Z,72.10
2023-03-31T19:04:37.990Z,72.00
2023-03-31T19:07:04.478Z,72.00
2023-03-31T19:09:30.943Z,72.10
2023-03-31T19:11:57.416Z,72.00
2023-03-31T19:14:23.881Z,71.80
2023-03-31T19:16:50.370Z,71.80
2023-03-31T19:19:16.890Z,71.70
2023-03-31T19:21:43.393Z,71.70
2023-03-31T19:24:09.874Z,71.80
2023-03-31T19:26:36.381Z,71.70
2023-03-31T19:29:02.889Z,71.80
2023-03-31T19:31:29.392Z,71.70
2023-03-31T19:33:55.891Z,71.80
2023-03-31T19:36:22.604Z,71.80
2023-03-31T19:38:49.169Z,71.80
2023-03-31T19:41:15.654Z,71.80
2023-03-31T19:43:42.131Z,71.60
2023-03-31T19:46:12.400Z,71.90
2023-03-31T19:48:38.919Z,72.00
2023-03-31T19:51:05.400Z,72.10
2023-03-31T19:53:31.891Z,71.80
2023-03-31T19:55:58.372Z,71.90
2023-03-31T19:58:24.884Z,71.90
2023-03-31T20:00:51.383Z,72.20
2023-03-31T20:03:18.084Z,72.30
2023-03-31T20:05:44.732Z,72.30
2023-03-31T20:08:11.185Z,72.30
2023-03-31T20:10:37.747Z,72.10
2023-03-31T20:13:04.272Z,72.10
2023-03-31T20:15:36.936Z,72.00
2023-03-31T20:18:04.453Z,72.10
2023-03-31T20:20:30.963Z,71.70
2023-03-31T20:22:57.446Z,71.80
2023-03-31T20:25:23.950Z,72.20
2023-03-31T20:27:50.448Z,72.10
2023-03-31T20:30:16.937Z,72.20
2023-03-31T20:32:43.451Z,72.10
2023-03-31T20:35:09.954Z,72.10
2023-03-31T20:37:36.428Z,72.00
2023-03-31T20:40:02.901Z,72.10
2023-03-31T20:42:29.400Z,72.00
2023-03-31T20:44:55.877Z,72.00
2023-03-31T20:47:22.381Z,72.10
2023-03-31T20:49:48.854Z,72.30
2023-03-31T20:52:15.363Z,72.00
2023-03-31T20:54:41.829Z,71.80
2023-03-31T20:57:08.432Z,71.80
2023-03-31T20:59:35.021Z,71.80
2023-03-31T21:02:01.489Z,72.30
2023-03-31T21:04:27.981Z,72.20
2023-03-31T21:06:54.448Z,72.30
2023-03-31T21:09:20.931Z,72.30
2023-03-31T21:11:47.430Z,72.20
2023-03-31T21:14:13.948Z,72.30
2023-03-31T21:16:40.579Z,72.30
2023-03-31T21:19:07.144Z,72.30
2023-03-31T21:21:33.637Z,72.50
2023-03-31T21:24:00.135Z,72.30
2023-03-31T21:26:26.632Z,72.10
2023-03-31T21:28:53.147Z,72.30
2023-03-31T21:31:19.618Z,72.40
2023-03-31T21:33:46.097Z,72.50
2023-03-31T21:36:12.634Z,72.40
2023-03-31T21:38:39.193Z,72.60
2023-03-31T21:41:05.657Z,72.50
2023-03-31T21:43:32.137Z,72.60
2023-03-31T21:45:58.636Z,72.50
2023-03-31T21:48:25.184Z,72.50
2023-03-31T21:50:51.680Z,72.30
2023-03-31T21:53:18.150Z,72.40
2023-03-31T21:55:44.621Z,72.50
2023-03-31T21:58:11.129Z,72.30
2023-03-31T22:00:37.613Z,72.40
2023-03-31T22:03:22.413Z,72.30
2023-03-31T22:05:50.504Z,72.60
2023-03-31T22:08:16.973Z,72.20
2023-03-31T22:10:43.426Z,72.20
2023-03-31T22:13:09.872Z,72.20
2023-03-31T22:15:36.377Z,72.50
2023-03-31T22:18:03.846Z,72.50
2023-03-31T22:20:30.320Z,72.50
2023-03-31T22:22:56.793Z,72.60
2023-03-31T22:25:23.279Z,72.50
2023-03-31T22:27:49.758Z,72.40
2023-03-31T22:30:16.238Z,72.50
2023-03-31T22:32:42.737Z,72.50
2023-03-31T22:35:09.241Z,72.30
2023-03-31T22:37:35.723Z,72.40
2023-03-31T22:40:02.203Z,72.50
2023-03-31T22:42:28.724Z,72.30
2023-03-31T22:44:55.256Z,72.20
2023-03-31T22:47:21.786Z,72.30
2023-03-31T22:49:48.313Z,72.30
2023-03-31T22:52:14.787Z,72.30
2023-03-31T22:54:41.283Z,72.30
2023-03-31T22:57:08.041Z,72.10
2023-03-31T22:59:34.584Z,72.10
2023-03-31T23:02:01.044Z,72.10
2023-03-31T23:04:27.595Z,72.00
2023-03-31T23:06:54.084Z,72.20
2023-03-31T23:09:20.533Z,72.10
2023-03-31T23:11:46.995Z,72.10
2023-03-31T23:14:13.469Z,72.00
2023-03-31T23:16:39.969Z,72.00
2023-03-31T23:19:06.483Z,72.10
2023-03-31T23:21:32.982Z,72.20
2023-03-31T23:23:59.456Z,72.10
2023-03-31T23:26:25.950Z,72.00
2023-03-31T23:28:52.420Z,72.00
2023-03-31T23:31:18.907Z,72.10
2023-03-31T23:33:45.396Z,72.00
2023-03-31T23:36:11.969Z,72.10
2023-03-31T23:38:38.498Z,71.90
2023-03-31T23:41:04.988Z,72.00
2023-03-31T23:43:31.459Z,72.00
2023-03-31T23:46:00.555Z,72.00
2023-03-31T23:48:30.715Z,72.00
2023-03-31T23:50:57.182Z,72.00
2023-03-31T23:53:23.656Z,72.20
2023-03-31T23:55:50.133Z,72.10
2023-03-31T23:58:16.606Z,72.10
